NCAR-RAP Real-Time Weather Data

Output produced by METARs form (17 September 2019  16:14 UTC)
found at http://weather.rap.ucar.edu/surface/
 
KDAY 171556Z 04010KT 10SM SCT035 BKN250 26/17 A3017 RMK AO2 SLP209 T02610167
KDAY 171456Z 04012KT 10SM FEW010 BKN250 24/17 A3018 RMK AO2 SLP212 T02440172 51006
KDAY 171356Z 02010KT 8SM FEW008 SCT250 21/17 A3018 RMK AO2 SLP212 T02060172
KDAY 171256Z 02009KT 7SM SCT250 19/17 A3017 RMK AO2 SLP211 T01940167
KDAY 171156Z 35006KT 5SM BR CLR 17/16 A3016 RMK AO2 SLP207 T01720156 10194 20167 53016
KDAY 171056Z 36007KT 9SM CLR 17/16 A3014 RMK AO2 SLP200 T01720156
KDAY 170956Z 03006KT 9SM CLR 17/16 A3012 RMK AO2 SLP193 T01720156
KDAY 170856Z 03006KT 10SM CLR 18/16 A3011 RMK AO2 SLP188 T01780161 55001
KDAY 170756Z 05007KT 10SM CLR 18/17 A3011 RMK A02 SLP187 T01830167
KDAY 170656Z 05006KT 10SM SKC 19/17 A3011 RMK AO2 SLP189 T01890167
KDAY 170556Z 06005KT 10SM SKC 19/17 A3041 RMK AO2 SLP189 T01940172
KDAY 170456Z 02005KT 10SM CLR 20/17 A3011 RMK LAST
KDAY 170356Z 04006KT 10SM CLR 21/17 A3010 RMK AO2 SLP185 T02060172
KDAY 170256Z 03007KT 10SM CLR 22/18 A3010 RMK AO2 SLP184 T02170178 51013
KDAY 170056Z 36006KT 10SM CLR 24/17 A3007 RMK AO2 SLP177 T02440172
KDAY 162356Z 36005KT 10SM FEW045 26/18 A3006 RMK AO2 SLP171 T02560178 10311 20256 53002
KDAY 162256Z 34007KT 10SM FEW045 28/18 A3005 RMK AO2 SLP169 T02830178
KDAY 162156Z 32010G19KT 10SM FEW045 30/17 A3005 RMK AO2 SLP166 T03000167
KDAY 162056Z 33009KT 10SM SCT045 31/17 A3005 RMK AO2 SLP167 T03060172 56013
KDAY 161956Z 35009KT 10SM SCT045 31/18 A3006 RMK AO2 SLP170 T03060178
KDAY 161856Z 33010KT 10SM SCT043 29/18 A3008 RMK AO2 SLP175 T02890183